Terminal Aerodrome Forecast
Issued by NWS Boston, MA

Home | Current Version | Previous Version | Text Only | Print | Product List | Glossary On
Versions: 1 2 3 4 5 6 7 8 9 10 11 12 13 14 15 16 17 18 19 20 21 22 23
000
FTUS41 KBOX 251725
TAFBOS
TAF
KBOS 251725Z 2518/2624 22010KT P6SM SCT045
     FM252100 22010KT P6SM BKN050
     FM260500 27006KT P6SM SKC
     FM261600 27010KT P6SM FEW050=

USA.gov is the U.S. government's official web portal to all federal, state and local government web resources and services.